createdAt,value
2016-07-31T00:00:30.923Z,85.41
2016-07-31T00:01:30.916Z,85.93
2016-07-31T00:02:30.910Z,85.41
2016-07-31T00:03:30.915Z,85.79
2016-07-31T00:04:31.207Z,85.79
2016-07-31T00:05:30.903Z,85.5
2016-07-31T00:06:30.905Z,85.41
2016-07-31T00:07:32.001Z,85.21
2016-07-31T00:08:30.898Z,85.41
2016-07-31T00:09:46.017Z,85.5
2016-07-31T00:10:30.896Z,86.08
2016-07-31T00:11:31.041Z,85.88
2016-07-31T00:12:30.996Z,86.17
2016-07-31T00:13:30.893Z,85.88
2016-07-31T00:14:30.889Z,86.08
2016-07-31T00:15:30.885Z,86.17
2016-07-31T00:16:30.884Z,86.55
2016-07-31T00:17:30.882Z,86.55
2016-07-31T00:18:30.882Z,86.36
2016-07-31T00:19:31.574Z,86.55
2016-07-31T00:20:30.874Z,86.46
2016-07-31T00:21:30.872Z,86.65
2016-07-31T00:22:30.870Z,86.94
2016-07-31T00:23:30.865Z,86.94
2016-07-31T00:24:30.864Z,86.55
2016-07-31T00:25:30.860Z,86.74
2016-07-31T00:26:30.861Z,87.23
2016-07-31T00:27:30.858Z,87.32
2016-07-31T00:28:30.852Z,87.03
2016-07-31T00:29:30.850Z,87.23
2016-07-31T00:30:30.852Z,87.23
2016-07-31T00:31:30.845Z,87.13
2016-07-31T00:32:30.847Z,87.51
2016-07-31T00:33:30.846Z,87.41
2016-07-31T00:34:30.845Z,87.13
2016-07-31T00:35:30.836Z,87.23
2016-07-31T00:36:30.836Z,87.23
2016-07-31T00:37:30.833Z,87.61
2016-07-31T00:38:30.828Z,87.7
2016-07-31T00:39:30.828Z,87.51
2016-07-31T00:40:30.830Z,87.23
2016-07-31T00:41:30.827Z,87.32
2016-07-31T00:42:30.821Z,87.32
2016-07-31T00:43:30.819Z,87.23
2016-07-31T00:44:30.819Z,87.41
2016-07-31T00:45:30.816Z,87.41
2016-07-31T00:46:30.809Z,87.41
2016-07-31T00:47:30.814Z,87.41
2016-07-31T00:48:30.810Z,87.9
2016-07-31T00:49:30.803Z,87.9
2016-07-31T00:50:30.804Z,87.9
2016-07-31T00:51:30.800Z,87.7
2016-07-31T00:52:30.802Z,87.9
2016-07-31T00:53:32.321Z,87.41
2016-07-31T00:54:31.816Z,87.41
2016-07-31T00:55:31.095Z,87.99
2016-07-31T00:56:31.102Z,87.8
2016-07-31T00:57:30.863Z,87.8
2016-07-31T00:58:30.786Z,87.9
2016-07-31T00:59:30.781Z,87.61
2016-07-31T01:00:30.781Z,87.51
2016-07-31T01:01:30.781Z,87.41
2016-07-31T01:02:30.782Z,87.51
2016-07-31T01:03:30.774Z,87.51
2016-07-31T01:04:31.681Z,87.41
2016-07-31T01:05:30.768Z,87.61
2016-07-31T01:06:30.765Z,87.61
2016-07-31T01:07:30.769Z,87.65
2016-07-31T01:08:31.078Z,87.65
2016-07-31T01:09:30.759Z,87.65
2016-07-31T01:10:30.759Z,88.03
2016-07-31T01:11:30.757Z,87.74
2016-07-31T01:12:30.767Z,88.03
2016-07-31T01:13:30.747Z,87.74
2016-07-31T01:14:30.745Z,87.94
2016-07-31T01:15:30.743Z,87.74
2016-07-31T01:16:31.996Z,87.94
2016-07-31T01:17:30.746Z,87.94
2016-07-31T01:18:30.747Z,87.84
2016-07-31T01:19:31.037Z,88.03
2016-07-31T01:20:30.738Z,87.84
2016-07-31T01:21:30.728Z,87.84
2016-07-31T01:22:30.729Z,87.65
2016-07-31T01:23:30.925Z,87.94
2016-07-31T01:24:30.724Z,87.84
2016-07-31T01:25:45.640Z,88.03
2016-07-31T01:27:31.621Z,87.84
2016-07-31T01:28:31.219Z,87.84
2016-07-31T01:29:30.715Z,87.94
2016-07-31T01:30:30.912Z,87.74
2016-07-31T01:31:30.858Z,87.65
2016-07-31T01:32:30.705Z,87.65
2016-07-31T01:33:30.704Z,87.55
2016-07-31T01:34:30.701Z,87.9
2016-07-31T01:35:30.704Z,87.84
2016-07-31T01:36:30.697Z,88.03
2016-07-31T01:37:30.699Z,87.84
2016-07-31T01:38:30.696Z,87.84
2016-07-31T01:39:30.688Z,87.65
2016-07-31T01:40:30.687Z,87.84
2016-07-31T01:41:30.684Z,88.03
2016-07-31T01:42:30.682Z,87.84
2016-07-31T01:43:30.681Z,87.84
2016-07-31T01:44:30.680Z,87.55
2016-07-31T01:45:30.675Z,87.94
2016-07-31T01:46:30.675Z,88.03
2016-07-31T01:47:30.673Z,87.94
2016-07-31T01:48:30.672Z,87.84
2016-07-31T01:49:30.666Z,87.55
2016-07-31T01:50:30.671Z,87.84
2016-07-31T01:51:30.663Z,87.55
2016-07-31T01:52:30.664Z,88.03
2016-07-31T01:53:30.658Z,88.13
2016-07-31T01:54:31.059Z,87.9
2016-07-31T01:55:30.654Z,87.8
2016-07-31T01:56:30.649Z,87.8
2016-07-31T01:57:30.648Z,87.9
2016-07-31T01:58:30.646Z,88.47
2016-07-31T01:59:30.643Z,87.51
2016-07-31T02:00:30.643Z,88.28
2016-07-31T02:01:30.644Z,87.9
2016-07-31T02:02:30.633Z,87.99
2016-07-31T02:03:30.637Z,88.09
2016-07-31T02:04:30.632Z,88.28
2016-07-31T02:05:30.631Z,87.9
2016-07-31T02:06:30.627Z,88.37
2016-07-31T02:07:30.626Z,87.9
2016-07-31T02:08:30.624Z,87.99
2016-07-31T02:09:30.621Z,88.47
2016-07-31T02:10:30.615Z,88.76
2016-07-31T02:11:30.614Z,88.76
2016-07-31T02:12:30.614Z,88.56
2016-07-31T02:13:30.613Z,88.9
2016-07-31T02:14:31.383Z,88.71
2016-07-31T02:15:30.606Z,89.43
2016-07-31T02:16:30.600Z,89.09
2016-07-31T02:17:30.987Z,89.38
2016-07-31T02:18:30.600Z,89.29
2016-07-31T02:19:30.597Z,89.29
2016-07-31T02:20:32.114Z,89.29
2016-07-31T02:21:31.279Z,88.9
2016-07-31T02:22:30.660Z,89.58
2016-07-31T02:23:30.584Z,89.38
2016-07-31T02:24:31.260Z,90.05
2016-07-31T02:25:30.579Z,89.95
2016-07-31T02:26:30.584Z,89.95
2016-07-31T02:27:30.576Z,89.58
2016-07-31T02:28:30.575Z,89.95
2016-07-31T02:29:30.570Z,89.86
2016-07-31T02:30:30.567Z,90.34
2016-07-31T02:31:30.562Z,90.05
2016-07-31T02:32:30.563Z,90.44
2016-07-31T02:33:30.560Z,90.72
2016-07-31T02:34:45.472Z,90.82
2016-07-31T02:35:31.456Z,90.53
2016-07-31T02:36:31.055Z,90.72
2016-07-31T02:37:30.547Z,90.53
2016-07-31T02:38:30.544Z,90.34
2016-07-31T02:39:30.546Z,90.34
2016-07-31T02:40:30.643Z,91.11
2016-07-31T02:41:31.245Z,91.2
2016-07-31T02:42:30.543Z,91.3
2016-07-31T02:44:31.581Z,91.06
2016-07-31T02:45:30.879Z,90.96
2016-07-31T02:46:31.581Z,90.87
2016-07-31T02:47:30.526Z,90.67
2016-07-31T02:48:30.765Z,90.67
2016-07-31T02:49:30.520Z,91.16
2016-07-31T02:50:30.516Z,90.87
2016-07-31T02:51:30.613Z,91.35
2016-07-31T02:52:30.511Z,91.16
2016-07-31T02:53:30.509Z,91.06
2016-07-31T02:54:30.505Z,91.25
2016-07-31T02:55:30.498Z,91.16
2016-07-31T02:56:30.499Z,91.63
2016-07-31T02:57:30.491Z,91.44
2016-07-31T02:58:30.492Z,91.44
2016-07-31T02:59:30.486Z,91.44
2016-07-31T03:00:30.484Z,91.44
2016-07-31T03:01:30.482Z,91.53
2016-07-31T03:02:30.484Z,91.53
2016-07-31T03:03:30.483Z,91.25
2016-07-31T03:04:30.472Z,91.06
2016-07-31T03:05:30.483Z,91.44
2016-07-31T03:06:30.467Z,91.92
2016-07-31T03:07:30.463Z,91.53
2016-07-31T03:08:30.461Z,92.21
2016-07-31T03:09:30.457Z,92.21
2016-07-31T03:10:30.459Z,92.21
2016-07-31T03:11:30.455Z,92.11
2016-07-31T03:12:30.453Z,92.11
2016-07-31T03:14:30.446Z,92.02
2016-07-31T03:15:30.444Z,91.92
2016-07-31T03:16:30.435Z,91.92
2016-07-31T03:17:30.437Z,91.77
2016-07-31T03:18:30.431Z,92.44
2016-07-31T03:19:30.428Z,92.69
2016-07-31T03:20:30.431Z,91.87
2016-07-31T03:21:30.426Z,92.54
2016-07-31T03:22:30.421Z,91.97
2016-07-31T03:23:30.422Z,91.87
2016-07-31T03:24:30.421Z,92.06
2016-07-31T03:25:30.414Z,91.97
2016-07-31T03:26:30.419Z,91.97
2016-07-31T03:27:30.411Z,91.87
2016-07-31T03:29:31.929Z,92.16
2016-07-31T03:30:31.618Z,91.97
2016-07-31T03:31:31.481Z,92.25
2016-07-31T03:32:31.198Z,91.44
2016-07-31T03:33:30.513Z,91.82
2016-07-31T03:34:30.799Z,91.44
2016-07-31T03:35:30.686Z,91.25
2016-07-31T03:36:30.386Z,91.63
2016-07-31T03:37:30.378Z,91.53
2016-07-31T03:39:30.825Z,91.82
2016-07-31T03:40:30.372Z,91.25
2016-07-31T03:41:30.367Z,91.72
2016-07-31T03:42:30.367Z,91.82
2016-07-31T03:44:30.747Z,91.39
2016-07-31T03:45:30.491Z,90.96
2016-07-31T03:46:30.361Z,91
2016-07-31T03:47:30.355Z,91.1
2016-07-31T03:48:30.351Z,90.72
2016-07-31T03:49:30.364Z,90.81
2016-07-31T03:50:30.346Z,90.81
2016-07-31T03:51:30.342Z,90.91
2016-07-31T03:53:45.258Z,90.72
2016-07-31T03:54:31.191Z,90.72
2016-07-31T03:55:30.337Z,90.95
2016-07-31T03:56:30.333Z,90.76
2016-07-31T03:57:30.328Z,90.47
2016-07-31T03:59:30.327Z,90.19
2016-07-31T04:00:30.325Z,90.28
2016-07-31T04:01:30.327Z,90
2016-07-31T04:02:30.317Z,90.09
2016-07-31T04:03:30.317Z,89.51
2016-07-31T04:04:45.234Z,89.32
2016-07-31T04:05:30.317Z,89.85
2016-07-31T04:06:30.311Z,89.37
2016-07-31T04:07:30.660Z,89.27
2016-07-31T04:08:30.307Z,89.08
2016-07-31T04:09:30.309Z,88.98
2016-07-31T04:10:30.304Z,88.51
2016-07-31T04:11:30.304Z,89.27
2016-07-31T04:12:30.301Z,88.79
2016-07-31T04:13:30.303Z,88.02
2016-07-31T04:14:30.297Z,88.12
2016-07-31T04:15:30.300Z,88.22
2016-07-31T04:16:30.295Z,88.02
2016-07-31T04:17:30.297Z,87.78
2016-07-31T04:18:30.295Z,88.17
2016-07-31T04:19:30.290Z,87.98
2016-07-31T04:20:30.291Z,88.17
2016-07-31T04:21:30.288Z,87.59
2016-07-31T04:22:30.285Z,87.88
2016-07-31T04:23:30.282Z,87.49
2016-07-31T04:24:30.283Z,87.59
2016-07-31T04:25:30.281Z,87.63
2016-07-31T04:26:30.278Z,87.25
2016-07-31T04:27:30.275Z,87.35
2016-07-31T04:28:30.281Z,86.38
2016-07-31T04:29:30.276Z,86.77
2016-07-31T04:30:30.271Z,86.43
2016-07-31T04:31:30.275Z,86.05
2016-07-31T04:32:30.272Z,86.33
2016-07-31T04:33:30.272Z,85.85
2016-07-31T04:34:30.272Z,85.85
2016-07-31T04:35:30.268Z,85.66
2016-07-31T04:36:30.272Z,85.47
2016-07-31T04:37:30.272Z,85.08
2016-07-31T04:38:30.270Z,85.18
2016-07-31T04:39:30.265Z,84.8
2016-07-31T04:40:30.269Z,84.99
2016-07-31T04:41:30.272Z,84.51
2016-07-31T04:42:30.266Z,84.51
2016-07-31T04:43:30.269Z,84.36
2016-07-31T04:44:30.264Z,83.97
2016-07-31T04:45:30.269Z,84.26
2016-07-31T04:46:30.268Z,83.4
2016-07-31T04:47:30.265Z,83.11
2016-07-31T04:48:30.601Z,83.59
2016-07-31T04:49:31.509Z,83.15
2016-07-31T04:50:30.265Z,82.86
2016-07-31T04:51:30.265Z,82.48
2016-07-31T04:52:30.262Z,82.67
2016-07-31T04:53:30.260Z,82.57
2016-07-31T04:54:30.263Z,81.71
2016-07-31T04:55:30.264Z,82.09
2016-07-31T04:56:30.606Z,81.42
2016-07-31T04:57:30.262Z,81.65
2016-07-31T04:58:30.262Z,81.56
2016-07-31T04:59:30.918Z,81.27
2016-07-31T05:00:30.265Z,81.56
2016-07-31T05:01:31.108Z,80.79
2016-07-31T05:02:30.262Z,80.5
2016-07-31T05:03:30.411Z,81.17
2016-07-31T05:04:30.263Z,80.44
2016-07-31T05:05:30.264Z,80.44
2016-07-31T05:06:30.265Z,80.15
2016-07-31T05:07:30.264Z,80.06
2016-07-31T05:08:30.265Z,79.33
2016-07-31T05:09:30.274Z,79.61
2016-07-31T05:10:30.267Z,79.03
2016-07-31T05:11:30.273Z,79.13
2016-07-31T05:12:30.267Z,78.65
2016-07-31T05:13:45.836Z,78.56
2016-07-31T05:14:30.271Z,78.59
2016-07-31T05:15:30.518Z,78.11
2016-07-31T05:16:30.326Z,77.92
2016-07-31T05:17:30.273Z,78.4
2016-07-31T05:18:30.278Z,77.63
2016-07-31T05:19:30.281Z,77.34
2016-07-31T05:20:30.626Z,77.28
2016-07-31T05:22:30.283Z,76.71
2016-07-31T05:23:30.287Z,76.51
2016-07-31T05:24:30.284Z,76.32
2016-07-31T05:25:30.443Z,75.59
2016-07-31T05:26:30.288Z,76.07
2016-07-31T05:27:30.499Z,75.01
2016-07-31T05:28:30.295Z,74.85
2016-07-31T05:29:30.299Z,74.57
2016-07-31T05:30:30.306Z,74.47
2016-07-31T05:31:30.305Z,72.96
2016-07-31T05:32:30.314Z,73.06
2016-07-31T05:33:30.314Z,72.73
2016-07-31T05:34:30.318Z,72.38
2016-07-31T05:35:30.314Z,72.09
2016-07-31T05:36:31.021Z,71.84
2016-07-31T05:37:30.329Z,71.1
2016-07-31T05:38:30.334Z,69.88
2016-07-31T05:39:30.338Z,68.46
2016-07-31T05:40:30.341Z,67.33
2016-07-31T05:41:30.349Z,65.24
2016-07-31T05:42:30.349Z,64.11
2016-07-31T05:43:30.360Z,63.43
2016-07-31T05:44:30.364Z,61.82
2016-07-31T05:45:30.372Z,60.55
2016-07-31T05:46:30.378Z,60.85
2016-07-31T05:47:30.383Z,59.69
2016-07-31T05:48:30.391Z,58.62
2016-07-31T05:49:30.401Z,58.91
2016-07-31T05:50:30.407Z,58.62
2016-07-31T05:51:30.414Z,58.52
2016-07-31T05:52:30.427Z,58.26
2016-07-31T05:53:30.431Z,57
2016-07-31T05:54:30.540Z,57.03
2016-07-31T05:55:30.441Z,56.93
2016-07-31T05:56:30.448Z,57.03
2016-07-31T05:57:30.458Z,56.74
2016-07-31T05:58:30.468Z,56.47
2016-07-31T05:59:30.475Z,56.47
2016-07-31T06:00:30.485Z,56.57
2016-07-31T06:01:30.490Z,56.37
2016-07-31T06:02:30.494Z,56.28
2016-07-31T06:03:30.515Z,56.28
2016-07-31T06:04:30.511Z,55.79
2016-07-31T06:05:30.522Z,56.09
2016-07-31T06:07:30.533Z,55.33
2016-07-31T06:08:31.075Z,55.14
2016-07-31T06:09:30.549Z,54.94
2016-07-31T06:10:30.552Z,54.94
2016-07-31T06:11:30.562Z,54.56
2016-07-31T06:12:30.688Z,54.66
2016-07-31T06:13:30.572Z,54.46
2016-07-31T06:14:30.575Z,54.56
2016-07-31T06:15:31.893Z,54.75
2016-07-31T06:16:30.587Z,54.75
2016-07-31T06:17:30.599Z,54.46
2016-07-31T06:18:31.611Z,54.07
2016-07-31T06:19:30.610Z,53.78
2016-07-31T06:20:30.622Z,53.88
2016-07-31T06:21:30.997Z,53.3
2016-07-31T06:22:30.630Z,53.49
2016-07-31T06:23:30.638Z,53.32
2016-07-31T06:24:30.656Z,53.52
2016-07-31T06:25:30.649Z,53.91
2016-07-31T06:26:30.657Z,53.32
2016-07-31T06:27:30.663Z,52.74
2016-07-31T06:28:30.671Z,52.84
2016-07-31T06:30:30.689Z,52.35
2016-07-31T06:31:30.746Z,52.45
2016-07-31T06:32:30.696Z,52.55
2016-07-31T06:33:30.709Z,52.15
2016-07-31T06:34:30.713Z,52.35
2016-07-31T06:35:30.727Z,51.97
2016-07-31T06:36:30.730Z,51.38
2016-07-31T06:37:30.731Z,50.99
2016-07-31T06:38:30.738Z,50.87
2016-07-31T06:39:31.052Z,50.68
2016-07-31T06:40:45.778Z,50.48
2016-07-31T06:41:45.685Z,50.46
2016-07-31T06:42:30.771Z,50.84
2016-07-31T06:43:30.776Z,50.48
2016-07-31T06:44:30.937Z,49.8
2016-07-31T06:45:30.804Z,50.38
2016-07-31T06:46:30.805Z,50.09
2016-07-31T06:47:30.811Z,50.29
2016-07-31T06:48:30.817Z,50.02
2016-07-31T06:49:30.828Z,49.82
2016-07-31T06:50:30.832Z,49.76
2016-07-31T06:51:30.842Z,49
2016-07-31T06:52:30.851Z,48.61
2016-07-31T06:53:30.861Z,48.41
2016-07-31T06:54:30.868Z,48.22
2016-07-31T06:55:30.873Z,48.44
2016-07-31T06:56:30.882Z,47.86
2016-07-31T06:57:30.894Z,48.17
2016-07-31T06:58:30.900Z,47.3
2016-07-31T06:59:30.928Z,47.22
2016-07-31T07:00:31.619Z,47.42
2016-07-31T07:01:30.930Z,47.13
2016-07-31T07:02:30.942Z,46.34
2016-07-31T07:03:30.952Z,46.37
2016-07-31T07:04:30.955Z,45.78
2016-07-31T07:05:30.962Z,45.51
2016-07-31T07:06:30.979Z,45.1
2016-07-31T07:07:30.984Z,45
2016-07-31T07:08:30.994Z,44.98
2016-07-31T07:09:31.006Z,44.57
2016-07-31T07:10:31.013Z,44.84
2016-07-31T07:11:31.021Z,45.21
2016-07-31T07:12:31.030Z,45.6
2016-07-31T07:13:31.041Z,45.52
2016-07-31T07:14:31.053Z,45.42
2016-07-31T07:15:31.061Z,45.62
2016-07-31T07:16:31.068Z,45.45
2016-07-31T07:17:31.076Z,44.48
2016-07-31T07:18:31.088Z,44.38
2016-07-31T07:19:31.093Z,44.38
2016-07-31T07:20:31.105Z,44.38
2016-07-31T07:21:31.118Z,44.09
2016-07-31T07:22:31.126Z,43.96
2016-07-31T07:23:31.136Z,44.55
2016-07-31T07:24:31.147Z,44.16
2016-07-31T07:25:31.157Z,44.45
2016-07-31T07:26:31.161Z,44.74
2016-07-31T07:27:31.169Z,44.35
2016-07-31T07:28:31.184Z,44.35
2016-07-31T07:30:31.206Z,44.24
2016-07-31T07:31:31.210Z,44.89
2016-07-31T07:32:31.213Z,45.09
2016-07-31T07:33:31.229Z,45.55
2016-07-31T07:34:31.234Z,45.75
2016-07-31T07:35:31.238Z,45.65
2016-07-31T07:36:31.251Z,46.41
2016-07-31T07:37:31.259Z,46.33
2016-07-31T07:38:31.262Z,46.14
2016-07-31T07:39:31.271Z,46.04
2016-07-31T07:40:31.282Z,45.87
2016-07-31T07:41:31.290Z,45.77
2016-07-31T07:42:31.299Z,45.11
2016-07-31T07:43:31.306Z,45.11
2016-07-31T07:45:31.317Z,45.5
2016-07-31T07:46:31.328Z,45.62
2016-07-31T07:47:31.340Z,44.67
2016-07-31T07:48:31.998Z,43.7
2016-07-31T07:49:32.154Z,42.35
2016-07-31T07:50:31.363Z,43.33
2016-07-31T07:51:31.379Z,42.94
2016-07-31T07:52:31.737Z,42.4
2016-07-31T07:53:31.391Z,41.66
2016-07-31T07:54:31.504Z,40.5
2016-07-31T07:55:31.419Z,40.63
2016-07-31T07:56:31.726Z,39.18
2016-07-31T07:57:31.436Z,39.49
2016-07-31T07:58:31.452Z,38.71
2016-07-31T08:00:31.473Z,38.42
2016-07-31T08:01:32.035Z,38.4
2016-07-31T08:02:31.491Z,38.61
2016-07-31T08:03:31.503Z,38.12
2016-07-31T08:04:31.516Z,38.12
2016-07-31T08:05:31.529Z,37.95
2016-07-31T08:06:31.540Z,37.95
2016-07-31T08:07:31.550Z,37.55
2016-07-31T08:08:31.557Z,37.57
2016-07-31T08:09:31.568Z,37.08
2016-07-31T08:10:31.582Z,37.06
2016-07-31T08:11:31.590Z,37.63
2016-07-31T08:12:31.604Z,36.85
2016-07-31T08:13:31.616Z,37.52
2016-07-31T08:15:31.636Z,37.6
2016-07-31T08:16:31.646Z,37.6
2016-07-31T08:17:31.658Z,37.48
2016-07-31T08:18:31.666Z,37.75
2016-07-31T08:19:31.673Z,38.22
2016-07-31T08:20:31.685Z,38.42
2016-07-31T08:21:31.693Z,38.81
2016-07-31T08:22:31.701Z,38.81
2016-07-31T08:23:31.714Z,39.2
2016-07-31T08:24:33.040Z,38.9
2016-07-31T08:25:32.020Z,38.32
2016-07-31T08:26:31.742Z,38.81
2016-07-31T08:27:31.750Z,38.81
2016-07-31T08:28:32.141Z,38.32
2016-07-31T08:30:32.142Z,38.71
2016-07-31T08:31:31.789Z,38.81
2016-07-31T08:32:31.798Z,38.63
2016-07-31T08:35:33.064Z,38.73
2016-07-31T08:36:32.771Z,38.63
2016-07-31T08:37:31.848Z,38.63
2016-07-31T08:38:32.360Z,38.73
2016-07-31T08:39:32.219Z,38.53
2016-07-31T08:40:31.876Z,38.35
2016-07-31T08:41:31.881Z,38.35
2016-07-31T08:42:31.891Z,37.89
2016-07-31T08:43:31.905Z,37.99
2016-07-31T08:44:31.909Z,37.89
2016-07-31T08:45:31.920Z,37.7
2016-07-31T08:46:31.930Z,37.7
2016-07-31T08:47:31.940Z,37.6
2016-07-31T08:48:31.948Z,37.79
2016-07-31T08:49:31.958Z,37.89
2016-07-31T08:50:31.966Z,37.4
2016-07-31T08:51:31.974Z,37.71
2016-07-31T08:52:31.988Z,37.99
2016-07-31T08:53:31.994Z,37.52
2016-07-31T08:54:32.003Z,37.12
2016-07-31T08:55:32.012Z,37.32
2016-07-31T08:56:32.023Z,37.52
2016-07-31T08:57:32.033Z,37.21
2016-07-31T08:58:32.038Z,37.91
2016-07-31T08:59:32.047Z,37.6
2016-07-31T09:00:32.057Z,37.79
2016-07-31T09:01:32.072Z,37.79
2016-07-31T09:02:32.077Z,37.5
2016-07-31T09:03:32.087Z,37.7
2016-07-31T09:04:32.100Z,37.7
2016-07-31T09:05:32.106Z,37.6
2016-07-31T09:06:32.113Z,37.7
2016-07-31T09:07:32.125Z,37.77
2016-07-31T09:08:32.688Z,38.16
2016-07-31T09:09:32.143Z,38.34
2016-07-31T09:10:32.152Z,38.14
2016-07-31T09:11:32.760Z,37.73
2016-07-31T09:12:32.173Z,38.2
2016-07-31T09:13:32.181Z,38.67
2016-07-31T09:14:32.192Z,39.34
2016-07-31T09:16:32.465Z,40.48
2016-07-31T09:17:32.214Z,40.39
2016-07-31T09:18:32.226Z,40.39
2016-07-31T09:19:32.236Z,40.41
2016-07-31T09:20:32.238Z,40.21
2016-07-31T09:21:32.502Z,40.01
2016-07-31T09:22:32.261Z,40.01
2016-07-31T09:23:32.269Z,39.04
2016-07-31T09:24:32.274Z,39.43
2016-07-31T09:25:32.288Z,39.16
2016-07-31T09:26:32.290Z,39.36
2016-07-31T09:27:32.296Z,39.55
2016-07-31T09:28:32.311Z,39.55
2016-07-31T09:29:32.316Z,39.26
2016-07-31T09:30:32.326Z,39.06
2016-07-31T09:31:32.343Z,39.36
2016-07-31T09:32:32.345Z,39.36
2016-07-31T09:33:32.352Z,39.16
2016-07-31T09:34:32.362Z,39.24
2016-07-31T09:35:32.365Z,39.36
2016-07-31T09:36:32.380Z,39.45
2016-07-31T09:37:32.391Z,39.18
2016-07-31T09:38:32.392Z,38.69
2016-07-31T09:39:32.402Z,39.08
2016-07-31T09:40:32.409Z,38.32
2016-07-31T09:41:32.418Z,38.12
2016-07-31T09:42:33.904Z,38.32
2016-07-31T09:43:32.437Z,38.02
2016-07-31T09:45:32.449Z,37.83
2016-07-31T09:46:33.132Z,38.02
2016-07-31T09:47:32.468Z,37.54
2016-07-31T09:48:32.479Z,37.73
2016-07-31T09:49:32.490Z,37.83
2016-07-31T09:50:32.494Z,38.02
2016-07-31T09:51:33.090Z,37.73
2016-07-31T09:52:33.845Z,37.93
2016-07-31T09:53:32.613Z,37.75
2016-07-31T09:54:33.211Z,37.85
2016-07-31T09:55:32.569Z,37.29
2016-07-31T09:56:32.543Z,37.67
2016-07-31T09:57:32.558Z,37.3
2016-07-31T09:58:32.667Z,36.91
2016-07-31T09:59:32.572Z,36.72
2016-07-31T10:00:32.586Z,36.43
2016-07-31T10:01:32.591Z,36.82
2016-07-31T10:02:32.596Z,36.15
2016-07-31T10:03:32.607Z,36.62
2016-07-31T10:04:32.614Z,36.62
2016-07-31T10:05:32.624Z,36.43
2016-07-31T10:06:32.635Z,36.63
2016-07-31T10:07:32.645Z,36.15
2016-07-31T10:08:32.654Z,36.26
2016-07-31T10:09:32.661Z,35.97
2016-07-31T10:10:32.668Z,35.3
2016-07-31T10:11:32.676Z,35.4
2016-07-31T10:12:32.688Z,35.11
2016-07-31T10:13:32.698Z,34.91
2016-07-31T10:14:32.707Z,35.01
2016-07-31T10:15:32.715Z,35.01
2016-07-31T10:16:32.726Z,34.64
2016-07-31T10:17:32.747Z,34.54
2016-07-31T10:18:32.743Z,34.74
2016-07-31T10:19:32.754Z,34.54
2016-07-31T10:20:32.767Z,34.64
2016-07-31T10:21:32.773Z,34.81
2016-07-31T10:22:32.783Z,35.01
2016-07-31T10:23:32.790Z,35.11
2016-07-31T10:24:33.103Z,34.52
2016-07-31T10:25:33.415Z,34.91
2016-07-31T10:26:32.819Z,34.64
2016-07-31T10:27:32.826Z,34.54
2016-07-31T10:28:32.898Z,34.44
2016-07-31T10:29:33.198Z,34.14
2016-07-31T10:30:32.857Z,34.34
2016-07-31T10:31:32.870Z,34.44
2016-07-31T10:32:32.878Z,34.34
2016-07-31T10:33:32.896Z,34.24
2016-07-31T10:34:47.816Z,33.65
2016-07-31T10:35:32.906Z,33.77
2016-07-31T10:36:32.920Z,33.67
2016-07-31T10:37:33.322Z,33.77
2016-07-31T10:38:32.935Z,34.05
2016-07-31T10:39:32.940Z,33.85
2016-07-31T10:40:32.955Z,33.95
2016-07-31T10:41:32.964Z,33.75
2016-07-31T10:42:32.966Z,34.33
2016-07-31T10:43:32.978Z,34.52
2016-07-31T10:44:32.991Z,34.5
2016-07-31T10:45:33.001Z,34.7
2016-07-31T10:46:33.004Z,35.09
2016-07-31T10:47:33.015Z,35.17
2016-07-31T10:48:33.026Z,35.17
2016-07-31T10:49:33.031Z,35.46
2016-07-31T10:50:33.040Z,35.06
2016-07-31T10:51:33.048Z,35.25
2016-07-31T10:52:33.055Z,35.74
2016-07-31T10:53:33.068Z,36.04
2016-07-31T10:54:33.076Z,36.13
2016-07-31T10:55:33.088Z,36.23
2016-07-31T10:56:33.095Z,36.13
2016-07-31T10:57:33.104Z,36.04
2016-07-31T10:58:33.108Z,36.13
2016-07-31T10:59:33.114Z,35.94
2016-07-31T11:00:33.129Z,35.94
2016-07-31T11:01:33.930Z,36.23
2016-07-31T11:02:33.191Z,36.05
2016-07-31T11:03:34.324Z,36.44
2016-07-31T11:04:34.121Z,36.15
2016-07-31T11:05:33.650Z,35.75
2016-07-31T11:06:33.182Z,35.56
2016-07-31T11:07:33.188Z,35.07
2016-07-31T11:08:33.198Z,35.36
2016-07-31T11:09:33.206Z,35.48
2016-07-31T11:10:33.960Z,35.19
2016-07-31T11:11:33.819Z,34.99
2016-07-31T11:12:33.505Z,34.99
2016-07-31T11:13:33.734Z,34.99
2016-07-31T11:14:33.752Z,34.99
2016-07-31T11:15:33.259Z,34.99
2016-07-31T11:16:33.270Z,34.72
2016-07-31T11:17:33.280Z,34.72
2016-07-31T11:18:33.322Z,34.91
2016-07-31T11:19:33.295Z,34.52
2016-07-31T11:20:33.305Z,34.8
2016-07-31T11:21:33.315Z,34.97
2016-07-31T11:22:33.318Z,35.17
2016-07-31T11:23:33.331Z,35.06
2016-07-31T11:24:33.335Z,35.92
2016-07-31T11:25:33.344Z,36.31
2016-07-31T11:26:33.350Z,36.21
2016-07-31T11:27:33.367Z,36.68
2016-07-31T11:28:33.372Z,36.29
2016-07-31T11:29:33.379Z,36.39
2016-07-31T11:30:33.390Z,36.98
2016-07-31T11:31:33.397Z,36.78
2016-07-31T11:32:33.402Z,36.98
2016-07-31T11:33:33.413Z,36.98
2016-07-31T11:34:33.423Z,36.98
2016-07-31T11:35:33.425Z,36.98
2016-07-31T11:36:33.436Z,36.99
2016-07-31T11:37:33.442Z,36.9
2016-07-31T11:38:33.453Z,36.51
2016-07-31T11:39:33.460Z,36.31
2016-07-31T11:40:33.469Z,36.52
2016-07-31T11:41:33.485Z,36.23
2016-07-31T11:42:34.085Z,36.52
2016-07-31T11:43:34.340Z,36.72
2016-07-31T11:44:48.722Z,36.04
2016-07-31T11:45:33.763Z,36.13
2016-07-31T11:46:33.668Z,36.24
2016-07-31T11:47:34.225Z,36.15
2016-07-31T11:48:33.538Z,36.15
2016-07-31T11:49:33.543Z,36.15
2016-07-31T11:50:33.548Z,36.83
2016-07-31T11:51:33.562Z,36.63
2016-07-31T11:52:48.485Z,37.02
2016-07-31T11:53:33.930Z,36.52
2016-07-31T11:54:34.635Z,36.62
2016-07-31T11:55:34.197Z,36.43
2016-07-31T11:56:33.605Z,36.63
2016-07-31T11:57:33.608Z,37.02
2016-07-31T11:58:33.615Z,36.54
2016-07-31T11:59:33.622Z,36.24
2016-07-31T12:01:33.644Z,36.34
2016-07-31T12:02:33.653Z,36.24
2016-07-31T12:03:33.661Z,36.16
2016-07-31T12:04:33.665Z,35.95
2016-07-31T12:05:33.672Z,35.75
2016-07-31T12:06:33.685Z,36.15
2016-07-31T12:07:33.695Z,36.24
2016-07-31T12:08:33.729Z,36.13
2016-07-31T12:09:33.711Z,36.91
2016-07-31T12:10:33.721Z,36.43
2016-07-31T12:11:33.723Z,36.51
2016-07-31T12:12:33.735Z,36.99
2016-07-31T12:13:33.747Z,37.55
2016-07-31T12:14:33.747Z,37.46
2016-07-31T12:16:33.766Z,37.46
2016-07-31T12:17:33.776Z,37.37
2016-07-31T12:18:33.782Z,37.37
2016-07-31T12:19:33.921Z,37.55
2016-07-31T12:20:34.358Z,37.55
2016-07-31T12:21:34.428Z,37.46
2016-07-31T12:22:35.002Z,37.37
2016-07-31T12:23:33.825Z,37.37
2016-07-31T12:24:33.832Z,37.65
2016-07-31T12:25:34.115Z,37.65
2016-07-31T12:26:33.850Z,38.04
2016-07-31T12:27:33.853Z,37.75
2016-07-31T12:29:33.870Z,37.67
2016-07-31T12:30:33.882Z,37.09
2016-07-31T12:31:34.784Z,37.4
2016-07-31T12:32:33.903Z,37.5
2016-07-31T12:33:33.910Z,37.5
2016-07-31T12:34:33.917Z,37.5
2016-07-31T12:35:33.928Z,37.6
2016-07-31T12:36:33.929Z,37.5
2016-07-31T12:37:33.941Z,37.21
2016-07-31T12:38:33.948Z,37.52
2016-07-31T12:39:33.954Z,36.91
2016-07-31T12:40:33.969Z,36.34
2016-07-31T12:41:33.975Z,36.44
2016-07-31T12:42:33.980Z,36.34
2016-07-31T12:43:33.993Z,36.44
2016-07-31T12:44:34.001Z,36.63
2016-07-31T12:45:34.005Z,36.34
2016-07-31T12:46:34.015Z,36.44
2016-07-31T12:47:34.027Z,37.01
2016-07-31T12:48:34.037Z,37.11
2016-07-31T12:49:34.038Z,37.4
2016-07-31T12:50:34.047Z,37.48
2016-07-31T12:51:34.059Z,37.48
2016-07-31T12:52:34.067Z,37.48
2016-07-31T12:53:34.075Z,37.57
2016-07-31T12:54:34.181Z,37.87
2016-07-31T12:55:34.095Z,37.55
2016-07-31T12:56:34.096Z,37.46
2016-07-31T12:57:34.108Z,37.65
2016-07-31T12:58:34.115Z,37.55
2016-07-31T12:59:34.123Z,37.46
2016-07-31T13:00:34.127Z,37.55
2016-07-31T13:01:49.058Z,37.46
2016-07-31T13:03:34.154Z,37.38
2016-07-31T13:04:34.164Z,36.41
2016-07-31T13:05:34.175Z,36.31
2016-07-31T13:06:34.183Z,36.23
2016-07-31T13:07:34.186Z,35.84
2016-07-31T13:08:34.195Z,35.27
2016-07-31T13:09:35.105Z,35.36
2016-07-31T13:10:34.411Z,35.09
2016-07-31T13:11:34.220Z,34.89
2016-07-31T13:12:34.986Z,34.99
2016-07-31T13:13:34.242Z,34.89
2016-07-31T13:14:34.244Z,34.8
2016-07-31T13:15:34.460Z,34.89
2016-07-31T13:16:34.262Z,34.11
2016-07-31T13:17:34.274Z,33.72
2016-07-31T13:18:34.286Z,33.72
2016-07-31T13:19:34.291Z,33.72